Roseburg, OR (97470)

9:21 PM PDT on April 26, 2017 (GMT -0700)
West Umpqua Street | | Change Station

Elev 0 ft 43.22 °N, 123.36 °W | Updated 2 minutes ago

Scattered Clouds
Scattered Clouds
47.1 °F
Feels Like 47 °F
N
0.6
Wind Variable Wind from West
Gusts 1.2 mph

Today
High -- | Low -- °F
--% Chance of Precip.
Yesterday
High -- | Low -- °F
Precip. -- in
Pressure 30.14 in
Visibility 10.0 miles
Clouds Few 3400 ft
Scattered Clouds 5500 ft
Windchill 47 °F
Dew Point 42 °F
Humidity 81%
Rainfall 0.62 in
Snow Depth Not available.
6:13 AM 8:09 PM
New Moon, 1% visible
METAR KRBG 270353Z AUTO VRB03KT 10SM FEW034 SCT055 10/05 A3013 RMK AO2 SLP204 T01000050
Pressure 30.14 in
Visibility 10.0 miles
Clouds Few 3400 ft
Scattered Clouds 5500 ft
Windchill 47 °F
Dew Point 42 °F
Humidity 81%
Rainfall 0.62 in
Snow Depth Not available.
6:13 AM 8:09 PM
New Moon, 1% visible
METAR KRBG 270353Z AUTO VRB03KT 10SM FEW034 SCT055 10/05 A3013 RMK AO2 SLP204 T01000050

Get Severe Weather Alerts

Thanks for signing up!

Be on the lookout for a verification email in your inbox.

You'll start receiving the daily forecast at 8 AM.

×

10-Day Weather Forecast

Almanac

Astronomy

Apr. 26, 2017 Rise Set
Actual Time
Civil Twilight
Nautical Twilight
Astronomical Twilight
Moon
Length of Visible Light
Length of Day
Tomorrow will be .
, % of the Moon is Illuminated

Today's Extremes

State Highs State Lows

Community

WunderPhotos

WunderBlog® & News

Nearby

Air Quality

  Air Quality AQ Index Pollutant
Not available.

Snow Depth

Station Depth Elevation

Earthquake Activity

City Distance Mag. Time & Date
Minimum magnitude displayed is 2.5.

Coastal Water Temperatures

Place Temperature

Stations

Nearby Weather Stations

Station Location Temp. Windchill Dew Point Humidity Wind Precip. Elev Updated Type
                   

Watches & Warnings

There are currently no watches in effect.